Time;durP1;ratioP1;P1;durP2;ratioP2;P2;SDS_P1;SDS_P2;PMS_P1;PMS_P2;Temp;Humidity;BMP_temperature;BMP_pressure;BME280_temperature;BME280_humidity;BME280_pressure;Samples;Min_cycle;Max_cycle;Signal;HPM_P1;HPM_P2
2021/06/27 00:02:24;;;;;;;2.15;1.60;;;;;;;;;;5086738;28;20056;-68
2021/06/27 00:04:50;;;;;;;1.70;1.60;;;;;;;;;;5087952;28;20051;-67
2021/06/27 00:07:16;;;;;;;3.60;2.25;;;;;;;;;;5088179;28;20047;-68
2021/06/27 00:09:43;;;;;;;2.45;1.60;;;;;;;;;;5089000;28;20075;-68
2021/06/27 00:12:10;;;;;;;1.80;1.70;;;;;;;;;;5088354;28;20052;-68
2021/06/27 00:14:37;;;;;;;1.67;1.58;;;;;;;;;;5087977;28;20561;-68
2021/06/27 00:17:03;;;;;;;1.48;1.38;;;;;;;;;;5088985;28;20040;-68
2021/06/27 00:19:29;;;;;;;2.22;2.00;;;;;;;;;;5088736;28;20056;-68
2021/06/27 00:21:55;;;;;;;2.78;2.55;;;;;;;;;;5088738;28;20111;-68
2021/06/27 00:24:22;;;;;;;2.22;1.88;;;;;;;;;;5087018;28;20046;-67
2021/06/27 00:26:48;;;;;;;2.10;2.00;;;;;;;;;;5088566;28;20051;-68
2021/06/27 00:29:14;;;;;;;1.63;1.52;;;;;;;;;;5087921;28;20063;-68
2021/06/27 00:31:40;;;;;;;1.85;1.73;;;;;;;;;;5087430;28;20047;-67
2021/06/27 00:34:06;;;;;;;1.75;1.65;;;;;;;;;;5087809;28;20056;-68
2021/06/27 00:36:32;;;;;;;1.50;1.40;;;;;;;;;;5087931;28;20048;-68
2021/06/27 00:38:58;;;;;;;2.15;2.03;;;;;;;;;;5089158;28;20105;-68
2021/06/27 00:41:24;;;;;;;1.70;1.38;;;;;;;;;;5087420;28;20059;-68
2021/06/27 00:43:51;;;;;;;2.88;2.67;;;;;;;;;;5087246;28;20063;-67
2021/06/27 00:46:18;;;;;;;2.17;2.03;;;;;;;;;;5087542;28;20410;-68
2021/06/27 00:48:44;;;;;;;2.75;1.95;;;;;;;;;;5088893;28;20383;-67
2021/06/27 00:51:10;;;;;;;1.20;1.10;;;;;;;;;;5087616;28;20039;-68
2021/06/27 00:53:36;;;;;;;1.80;1.70;;;;;;;;;;5087192;28;20134;-67
2021/06/27 00:56:03;;;;;;;1.75;1.65;;;;;;;;;;5088663;28;20486;-68
2021/06/27 00:58:32;;;;;;;1.40;1.33;;;;;;;;;;5108005;28;20075;-67
2021/06/27 01:01:00;;;;;;;1.70;1.60;;;;;;;;;;5107817;28;20100;-68
2021/06/27 01:03:26;;;;;;;1.20;1.17;;;;;;;;;;5107093;28;20055;-68
2021/06/27 01:05:52;;;;;;;1.85;1.70;;;;;;;;;;5107744;28;20513;-67
2021/06/27 01:08:19;;;;;;;1.48;1.38;;;;;;;;;;5108019;28;20055;-68
2021/06/27 01:10:47;;;;;;;4.47;2.03;;;;;;;;;;5108267;28;20098;-68
2021/06/27 01:13:13;;;;;;;1.38;1.27;;;;;;;;;;5106638;28;20487;-68
2021/06/27 01:15:39;;;;;;;1.50;1.40;;;;;;;;;;5107987;28;20040;-67
2021/06/27 01:18:05;;;;;;;1.73;1.63;;;;;;;;;;5108066;28;20073;-68
2021/06/27 01:20:33;;;;;;;1.80;1.70;;;;;;;;;;5107843;28;20173;-68
2021/06/27 01:23:00;;;;;;;2.90;2.25;;;;;;;;;;5107287;28;20051;-68
2021/06/27 01:25:28;;;;;;;2.22;2.03;;;;;;;;;;5107067;28;20510;-68
2021/06/27 01:27:54;;;;;;;1.15;1.10;;;;;;;;;;5107794;28;20047;-68
2021/06/27 01:30:21;;;;;;;3.70;1.83;;;;;;;;;;5107310;28;20044;-67
2021/06/27 01:32:48;;;;;;;1.50;1.33;;;;;;;;;;5106217;28;20635;-68
2021/06/27 01:35:16;;;;;;;1.42;1.33;;;;;;;;;;5106152;28;20040;-68
2021/06/27 01:37:43;;;;;;;1.60;1.50;;;;;;;;;;5108574;28;20054;-67
2021/06/27 01:40:11;;;;;;;1.42;1.25;;;;;;;;;;5106903;28;20043;-68
2021/06/27 01:42:37;;;;;;;1.33;1.25;;;;;;;;;;5107411;28;20134;-67
2021/06/27 01:45:15;;;;;;;1.08;1.08;;;;;;;;;;5107003;28;20047;-68
2021/06/27 01:47:41;;;;;;;1.20;1.10;;;;;;;;;;5108117;28;20050;-67
2021/06/27 01:50:08;;;;;;;1.55;1.45;;;;;;;;;;5107221;28;20130;-69
2021/06/27 01:52:35;;;;;;;1.13;1.02;;;;;;;;;;5107175;28;20075;-68
2021/06/27 01:55:01;;;;;;;1.40;1.30;;;;;;;;;;5106887;28;20082;-67
2021/06/27 01:57:27;;;;;;;1.52;1.42;;;;;;;;;;5094370;28;20561;-68
2021/06/27 01:59:53;;;;;;;1.60;1.50;;;;;;;;;;5087769;28;20048;-68
2021/06/27 02:02:20;;;;;;;1.42;1.33;;;;;;;;;;5084935;28;20048;-68
2021/06/27 02:04:47;;;;;;;1.50;1.40;;;;;;;;;;5086602;28;20055;-67
2021/06/27 02:07:13;;;;;;;1.00;1.00;;;;;;;;;;5086512;28;20040;-68
2021/06/27 02:09:41;;;;;;;1.58;1.20;;;;;;;;;;5086762;28;20048;-68
2021/06/27 02:12:08;;;;;;;1.55;1.45;;;;;;;;;;5086413;28;20052;-68
2021/06/27 02:14:35;;;;;;;1.40;1.30;;;;;;;;;;5086320;28;20071;-68
2021/06/27 02:17:01;;;;;;;0.93;0.90;;;;;;;;;;5086767;28;20135;-68
2021/06/27 02:19:27;;;;;;;1.00;0.90;;;;;;;;;;5087034;28;20051;-67
2021/06/27 02:21:53;;;;;;;1.13;1.02;;;;;;;;;;5086825;28;20056;-68
2021/06/27 02:24:19;;;;;;;1.33;1.23;;;;;;;;;;5067217;28;20687;-68
2021/06/27 02:26:46;;;;;;;1.17;1.08;;;;;;;;;;5087049;28;20047;-67
2021/06/27 02:29:12;;;;;;;1.73;1.63;;;;;;;;;;5086409;28;20055;-68
2021/06/27 02:31:38;;;;;;;1.23;0.98;;;;;;;;;;5085625;28;20529;-68
2021/06/27 02:34:04;;;;;;;1.60;1.42;;;;;;;;;;5085927;28;20536;-67
2021/06/27 02:36:30;;;;;;;1.13;1.05;;;;;;;;;;5085862;28;20886;-68
2021/06/27 02:38:56;;;;;;;1.90;1.58;;;;;;;;;;5086872;28;20510;-68
2021/06/27 02:41:23;;;;;;;0.82;0.82;;;;;;;;;;5085568;28;20117;-68
2021/06/27 02:43:49;;;;;;;1.17;1.15;;;;;;;;;;5085629;28;20040;-67
2021/06/27 02:46:15;;;;;;;1.90;1.75;;;;;;;;;;5085890;28;20143;-68
2021/06/27 02:48:41;;;;;;;1.10;1.00;;;;;;;;;;5087159;28;20082;-68
2021/06/27 02:51:07;;;;;;;1.42;1.15;;;;;;;;;;5085950;28;20043;-68
2021/06/27 02:53:34;;;;;;;2.20;1.00;;;;;;;;;;5085946;28;20417;-68
2021/06/27 02:56:09;;;;;;;1.23;1.15;;;;;;;;;;5086735;28;20041;-68
2021/06/27 02:58:42;;;;;;;0.88;0.88;;;;;;;;;;5107027;28;20126;-67
2021/06/27 03:01:09;;;;;;;2.40;1.50;;;;;;;;;;5105838;28;20525;-68
2021/06/27 03:03:35;;;;;;;1.23;1.13;;;;;;;;;;5105632;28;20047;-67
2021/06/27 03:06:01;;;;;;;1.48;1.38;;;;;;;;;;5103982;28;20052;-68
2021/06/27 03:08:27;;;;;;;0.98;0.93;;;;;;;;;;5106217;28;20051;-68
2021/06/27 03:10:54;;;;;;;1.05;1.05;;;;;;;;;;5107126;28;20051;-68
2021/06/27 03:13:20;;;;;;;1.52;1.30;;;;;;;;;;5105054;28;20040;-68
2021/06/27 03:15:46;;;;;;;0.98;0.98;;;;;;;;;;5106816;28;20423;-68
2021/06/27 03:18:12;;;;;;;1.25;1.15;;;;;;;;;;5106128;28;20059;-68
2021/06/27 03:20:39;;;;;;;1.38;1.27;;;;;;;;;;5107366;28;20094;-68
2021/06/27 03:23:05;;;;;;;1.75;1.50;;;;;;;;;;5109235;28;20124;-67
2021/06/27 03:25:31;;;;;;;0.98;0.95;;;;;;;;;;5108935;28;20062;-68
2021/06/27 03:27:57;;;;;;;1.13;1.08;;;;;;;;;;5110004;28;20510;-67
2021/06/27 03:30:24;;;;;;;1.02;0.98;;;;;;;;;;5109117;28;20394;-68
2021/06/27 03:32:50;;;;;;;1.23;1.13;;;;;;;;;;5108118;28;20055;-68
2021/06/27 03:35:17;;;;;;;2.67;1.35;;;;;;;;;;5108381;28;20047;-68
2021/06/27 03:38:00;;;;;;;1.45;1.25;;;;;;;;;;5110069;28;20054;-67
2021/06/27 03:40:26;;;;;;;1.25;1.00;;;;;;;;;;5109128;28;20067;-68
2021/06/27 03:42:52;;;;;;;0.80;0.80;;;;;;;;;;5086780;28;20052;-68
2021/06/27 03:45:18;;;;;;;1.02;0.80;;;;;;;;;;5108472;28;20055;-68
2021/06/27 03:47:45;;;;;;;1.05;1.02;;;;;;;;;;5109788;28;20440;-68
2021/06/27 03:50:11;;;;;;;1.52;0.88;;;;;;;;;;5109193;28;20044;-68
2021/06/27 03:52:38;;;;;;;1.30;1.20;;;;;;;;;;5107218;28;20122;-67
2021/06/27 03:55:05;;;;;;;1.10;0.80;;;;;;;;;;5109028;28;20052;-67
2021/06/27 03:57:31;;;;;;;0.82;0.82;;;;;;;;;;5096162;28;20048;-68
2021/06/27 03:59:57;;;;;;;0.80;0.73;;;;;;;;;;5089466;28;20493;-67
2021/06/27 04:02:23;;;;;;;0.98;0.98;;;;;;;;;;5086897;28;20044;-68
2021/06/27 04:04:49;;;;;;;0.80;0.80;;;;;;;;;;5087962;28;20048;-67
2021/06/27 04:07:15;;;;;;;2.53;1.33;;;;;;;;;;5088326;28;20306;-68
2021/06/27 04:09:41;;;;;;;0.77;0.73;;;;;;;;;;5089084;28;20054;-67
2021/06/27 04:12:08;;;;;;;1.20;1.00;;;;;;;;;;5087765;28;20190;-68
2021/06/27 04:14:34;;;;;;;0.65;0.65;;;;;;;;;;5087866;28;20048;-67
2021/06/27 04:17:00;;;;;;;0.70;0.70;;;;;;;;;;5088907;28;20048;-67
2021/06/27 04:19:26;;;;;;;2.13;1.30;;;;;;;;;;5088049;28;20044;-68
2021/06/27 04:21:53;;;;;;;0.60;0.60;;;;;;;;;;5088371;28;20044;-67
2021/06/27 04:24:19;;;;;;;0.73;0.73;;;;;;;;;;5087079;28;20134;-68
2021/06/27 04:26:45;;;;;;;1.50;0.73;;;;;;;;;;5088693;28;20434;-68
2021/06/27 04:29:13;;;;;;;0.73;0.73;;;;;;;;;;5088319;28;20094;-68
2021/06/27 04:31:40;;;;;;;0.73;0.73;;;;;;;;;;5086598;28;20089;-68
2021/06/27 04:34:07;;;;;;;1.27;1.23;;;;;;;;;;5087250;28;20044;-68
2021/06/27 04:36:33;;;;;;;0.70;0.70;;;;;;;;;;5088066;28;20039;-67
2021/06/27 04:39:00;;;;;;;1.00;1.00;;;;;;;;;;5088817;28;20054;-68
2021/06/27 04:41:26;;;;;;;0.82;0.65;;;;;;;;;;5087541;28;20403;-67
2021/06/27 04:43:52;;;;;;;0.98;0.95;;;;;;;;;;5087649;28;20052;-68
2021/06/27 04:46:18;;;;;;;1.00;0.90;;;;;;;;;;5087716;28;20105;-68
2021/06/27 04:48:44;;;;;;;0.50;0.50;;;;;;;;;;5088772;28;20094;-67
2021/06/27 04:51:10;;;;;;;0.88;0.88;;;;;;;;;;5087996;28;20150;-68
2021/06/27 04:53:36;;;;;;;0.88;0.88;;;;;;;;;;5087327;28;20043;-67
2021/06/27 04:56:02;;;;;;;1.00;0.90;;;;;;;;;;5088535;28;20044;-68
2021/06/27 04:58:28;;;;;;;1.23;0.73;;;;;;;;;;5108050;28;20055;-67
2021/06/27 05:00:55;;;;;;;0.90;0.90;;;;;;;;;;5107798;28;20256;-68
2021/06/27 05:03:21;;;;;;;0.88;0.73;;;;;;;;;;5106525;28;20050;-67
2021/06/27 05:05:47;;;;;;;0.70;0.70;;;;;;;;;;5107513;28;20052;-67
2021/06/27 05:08:14;;;;;;;1.20;0.80;;;;;;;;;;5108022;28;20617;-68
2021/06/27 05:10:40;;;;;;;0.45;0.45;;;;;;;;;;5108081;28;20108;-67
2021/06/27 05:13:07;;;;;;;0.60;0.60;;;;;;;;;;5107399;28;20043;-68
2021/06/27 05:15:33;;;;;;;0.80;0.80;;;;;;;;;;5107690;28;20048;-68
2021/06/27 05:17:59;;;;;;;0.85;0.85;;;;;;;;;;5108512;28;20063;-67
2021/06/27 05:20:25;;;;;;;0.85;0.85;;;;;;;;;;5107558;28;20073;-68
2021/06/27 05:22:51;;;;;;;0.80;0.80;;;;;;;;;;5107739;28;20197;-67
2021/06/27 05:25:18;;;;;;;0.50;0.50;;;;;;;;;;5107319;28;20082;-68
2021/06/27 05:27:44;;;;;;;0.70;0.70;;;;;;;;;;5108054;28;20056;-68
2021/06/27 05:30:10;;;;;;;0.80;0.80;;;;;;;;;;5107567;28;20044;-67
2021/06/27 05:32:36;;;;;;;0.80;0.80;;;;;;;;;;5106478;28;20094;-67
2021/06/27 05:35:03;;;;;;;0.57;0.57;;;;;;;;;;5107166;28;20095;-67
2021/06/27 05:37:29;;;;;;;0.65;0.65;;;;;;;;;;5107576;28;20047;-67
2021/06/27 05:39:56;;;;;;;1.65;0.82;;;;;;;;;;5108012;28;20048;-67
2021/06/27 05:42:22;;;;;;;0.77;0.77;;;;;;;;;;5106564;28;20035;-67
2021/06/27 05:44:48;;;;;;;0.50;0.50;;;;;;;;;;5106403;28;20120;-67
2021/06/27 05:47:14;;;;;;;0.70;0.70;;;;;;;;;;5107062;28;20494;-68
2021/06/27 05:49:40;;;;;;;1.98;0.90;;;;;;;;;;5108078;28;20545;-68
2021/06/27 05:52:06;;;;;;;0.40;0.40;;;;;;;;;;5106715;28;20405;-68
2021/06/27 05:54:32;;;;;;;0.50;0.50;;;;;;;;;;5106364;28;20132;-68
2021/06/27 05:56:58;;;;;;;0.60;0.60;;;;;;;;;;5099189;28;20044;-68
2021/06/27 05:59:24;;;;;;;0.57;0.52;;;;;;;;;;5086602;28;20066;-68
2021/06/27 06:01:50;;;;;;;0.70;0.70;;;;;;;;;;5085892;28;20426;-67
2021/06/27 06:04:16;;;;;;;0.57;0.47;;;;;;;;;;5085971;28;20097;-68
2021/06/27 06:06:43;;;;;;;0.38;0.38;;;;;;;;;;5086679;28;20214;-67
2021/06/27 06:09:09;;;;;;;0.70;0.70;;;;;;;;;;5087041;28;20044;-68
2021/06/27 06:11:35;;;;;;;0.77;0.77;;;;;;;;;;5086634;28;20063;-67
2021/06/27 06:14:01;;;;;;;3.65;0.60;;;;;;;;;;5086559;28;20056;-68
2021/06/27 06:16:27;;;;;;;0.73;0.73;;;;;;;;;;5086392;28;20055;-67
2021/06/27 06:18:53;;;;;;;0.40;0.40;;;;;;;;;;5087011;28;20752;-67
2021/06/27 06:21:19;;;;;;;0.70;0.68;;;;;;;;;;5086241;28;20044;-67
2021/06/27 06:23:45;;;;;;;0.60;0.60;;;;;;;;;;5086567;28;20486;-67
2021/06/27 06:26:12;;;;;;;0.80;0.80;;;;;;;;;;5086232;28;20048;-68
2021/06/27 06:28:41;;;;;;;0.50;0.50;;;;;;;;;;5087214;28;20076;-67
2021/06/27 06:31:08;;;;;;;0.70;0.70;;;;;;;;;;5085483;28;20048;-68
2021/06/27 06:33:34;;;;;;;0.77;0.68;;;;;;;;;;5085707;28;20052;-67
2021/06/27 06:36:00;;;;;;;0.45;0.45;;;;;;;;;;5086158;28;20456;-68
2021/06/27 06:38:27;;;;;;;0.80;0.80;;;;;;;;;;5086161;28;20058;-68
2021/06/27 06:40:53;;;;;;;1.20;0.65;;;;;;;;;;5086340;28;20066;-68
2021/06/27 06:43:19;;;;;;;0.70;0.70;;;;;;;;;;5085519;28;20101;-68
2021/06/27 06:45:45;;;;;;;0.63;0.57;;;;;;;;;;5086478;28;20048;-67
2021/06/27 06:48:11;;;;;;;0.55;0.55;;;;;;;;;;5086258;28;20048;-68
2021/06/27 06:50:37;;;;;;;0.40;0.40;;;;;;;;;;5087011;28;20123;-68
2021/06/27 06:53:03;;;;;;;0.52;0.52;;;;;;;;;;5067967;28;20201;-67
2021/06/27 06:55:30;;;;;;;0.93;0.70;;;;;;;;;;5087703;28;20522;-67
2021/06/27 06:57:56;;;;;;;1.08;0.60;;;;;;;;;;5106808;28;20088;-67
2021/06/27 07:00:22;;;;;;;0.50;0.50;;;;;;;;;;5109880;28;20130;-68
2021/06/27 07:02:49;;;;;;;0.77;0.70;;;;;;;;;;5109005;28;20048;-67
2021/06/27 07:05:15;;;;;;;0.52;0.52;;;;;;;;;;5109013;28;20502;-67
2021/06/27 07:07:42;;;;;;;0.75;0.70;;;;;;;;;;5110488;28;20047;-67
2021/06/27 07:10:08;;;;;;;0.80;0.80;;;;;;;;;;5109849;28;20054;-68
2021/06/27 07:12:35;;;;;;;0.80;0.57;;;;;;;;;;5109912;28;20055;-67
2021/06/27 07:15:01;;;;;;;0.60;0.60;;;;;;;;;;5109783;28;20075;-67
2021/06/27 07:17:27;;;;;;;0.40;0.40;;;;;;;;;;5109774;28;20055;-67
2021/06/27 07:19:53;;;;;;;0.60;0.60;;;;;;;;;;5110166;28;20044;-68
2021/06/27 07:22:19;;;;;;;0.68;0.68;;;;;;;;;;5108927;28;20518;-68
2021/06/27 07:24:45;;;;;;;0.70;0.70;;;;;;;;;;5109850;28;20056;-67
2021/06/27 07:27:11;;;;;;;0.50;0.50;;;;;;;;;;5109403;28;20055;-67
2021/06/27 07:29:37;;;;;;;0.50;0.50;;;;;;;;;;5110135;28;20058;-67
2021/06/27 07:32:03;;;;;;;0.60;0.60;;;;;;;;;;5108233;28;20502;-67
2021/06/27 07:34:29;;;;;;;0.40;0.40;;;;;;;;;;5108782;28;20055;-67
2021/06/27 07:36:55;;;;;;;0.50;0.40;;;;;;;;;;5109638;28;20085;-67
2021/06/27 07:39:22;;;;;;;0.77;0.68;;;;;;;;;;5109414;28;20557;-68
2021/06/27 07:41:48;;;;;;;0.60;0.60;;;;;;;;;;5109393;28;20051;-67
2021/06/27 07:44:14;;;;;;;0.93;0.57;;;;;;;;;;5108377;28;20042;-68
2021/06/27 07:46:40;;;;;;;0.60;0.60;;;;;;;;;;5109654;28;20070;-67
2021/06/27 07:49:06;;;;;;;1.30;1.20;;;;;;;;;;5109713;28;20051;-68
2021/06/27 07:51:32;;;;;;;1.13;0.70;;;;;;;;;;5107885;28;20044;-67
2021/06/27 07:53:58;;;;;;;0.75;0.73;;;;;;;;;;5108974;28;20123;-67
2021/06/27 07:56:24;;;;;;;0.70;0.70;;;;;;;;;;5104799;28;20040;-67
2021/06/27 07:58:50;;;;;;;0.75;0.75;;;;;;;;;;5089502;28;20063;-68
2021/06/27 08:01:17;;;;;;;1.00;0.95;;;;;;;;;;5085340;28;20138;-68
2021/06/27 08:03:43;;;;;;;1.02;0.80;;;;;;;;;;5087788;28;20127;-68
2021/06/27 08:06:09;;;;;;;0.88;0.60;;;;;;;;;;5086388;28;20406;-68
2021/06/27 08:08:35;;;;;;;0.60;0.60;;;;;;;;;;5088249;28;20062;-67
2021/06/27 08:11:01;;;;;;;1.00;0.98;;;;;;;;;;5088427;28;20109;-68
2021/06/27 08:13:27;;;;;;;0.88;0.88;;;;;;;;;;5086605;28;20131;-68
2021/06/27 08:15:57;;;;;;;1.10;0.60;;;;;;;;;;5087866;28;20051;-68
2021/06/27 08:18:23;;;;;;;0.68;0.68;;;;;;;;;;5087576;28;20541;-67
2021/06/27 08:20:49;;;;;;;1.00;1.00;;;;;;;;;;5087943;28;20048;-67
2021/06/27 08:23:16;;;;;;;0.57;0.57;;;;;;;;;;5087132;28;20514;-68
2021/06/27 08:25:42;;;;;;;0.70;0.70;;;;;;;;;;5087349;28;20055;-67
2021/06/27 08:28:08;;;;;;;0.60;0.60;;;;;;;;;;5087548;28;20060;-68
2021/06/27 08:30:35;;;;;;;0.73;0.65;;;;;;;;;;5087392;28;20371;-68
2021/06/27 08:33:01;;;;;;;0.85;0.70;;;;;;;;;;5085942;28;20048;-67
2021/06/27 08:35:29;;;;;;;0.70;0.70;;;;;;;;;;5086496;28;20040;-68
2021/06/27 08:37:55;;;;;;;0.93;0.93;;;;;;;;;;5087898;28;20391;-68
2021/06/27 08:40:22;;;;;;;1.17;0.82;;;;;;;;;;5086954;28;20517;-68
2021/06/27 08:42:48;;;;;;;0.70;0.52;;;;;;;;;;5087509;28;20090;-67
2021/06/27 08:45:17;;;;;;;0.38;0.38;;;;;;;;;;5087826;28;20090;-68
2021/06/27 08:47:43;;;;;;;0.47;0.47;;;;;;;;;;5088623;28;20284;-67
2021/06/27 08:50:11;;;;;;;0.80;0.80;;;;;;;;;;5087816;28;20094;-68
2021/06/27 08:52:37;;;;;;;0.70;0.70;;;;;;;;;;5087804;28;20052;-67
2021/06/27 08:55:05;;;;;;;0.40;0.40;;;;;;;;;;5088113;28;20059;-68
2021/06/27 08:57:31;;;;;;;0.63;0.63;;;;;;;;;;5100716;28;20138;-68
2021/06/27 09:00:00;;;;;;;0.63;0.63;;;;;;;;;;5108517;28;20063;-67
2021/06/27 09:02:26;;;;;;;0.52;0.52;;;;;;;;;;5106431;28;20044;-68
2021/06/27 09:04:53;;;;;;;0.55;0.55;;;;;;;;;;5107775;28;20043;-67
2021/06/27 09:07:32;;;;;;;0.88;0.88;;;;;;;;;;5107916;28;20395;-68
2021/06/27 09:10:04;;;;;;;0.60;0.60;;;;;;;;;;5108380;28;20047;-68
2021/06/27 09:12:49;;;;;;;0.68;0.55;;;;;;;;;;5107671;28;20060;-68
2021/06/27 09:15:32;;;;;;;0.65;0.65;;;;;;;;;;5107508;28;20559;-68
2021/06/27 09:17:59;;;;;;;1.10;0.65;;;;;;;;;;5108467;28;20060;-67
2021/06/27 09:20:25;;;;;;;0.63;0.63;;;;;;;;;;5107545;28;20055;-67
2021/06/27 09:22:53;;;;;;;0.57;0.57;;;;;;;;;;5107777;28;20051;-67
2021/06/27 09:25:26;;;;;;;1.10;1.00;;;;;;;;;;5107166;28;20043;-67
2021/06/27 09:28:11;;;;;;;0.68;0.68;;;;;;;;;;5108239;28;20414;-67
2021/06/27 09:30:44;;;;;;;0.70;0.70;;;;;;;;;;5107592;28;20411;-67
2021/06/27 09:33:11;;;;;;;0.50;0.50;;;;;;;;;;5105739;28;20506;-68
2021/06/27 09:35:51;;;;;;;0.60;0.57;;;;;;;;;;5107395;28;20044;-68
2021/06/27 09:38:26;;;;;;;0.60;0.60;;;;;;;;;;5107256;28;20468;-68
2021/06/27 09:40:53;;;;;;;0.68;0.68;;;;;;;;;;5108005;28;20051;-67
2021/06/27 09:43:20;;;;;;;0.60;0.60;;;;;;;;;;5106177;28;20120;-68
2021/06/27 09:45:48;;;;;;;0.85;0.70;;;;;;;;;;5107289;28;20490;-67
2021/06/27 09:48:15;;;;;;;0.82;0.70;;;;;;;;;;5106961;28;20036;-68
2021/06/27 09:50:41;;;;;;;0.40;0.40;;;;;;;;;;5107791;28;20636;-67
2021/06/27 09:53:27;;;;;;;0.80;0.60;;;;;;;;;;5106630;28;20661;-68
2021/06/27 09:55:57;;;;;;;0.60;0.60;;;;;;;;;;5107517;28;20054;-68
2021/06/27 09:58:23;;;;;;;0.77;0.77;;;;;;;;;;5086774;28;20044;-68
2021/06/27 10:00:49;;;;;;;0.98;0.85;;;;;;;;;;5087194;28;20048;-67
2021/06/27 10:03:15;;;;;;;0.88;0.88;;;;;;;;;;5084969;28;20052;-67
2021/06/27 10:05:41;;;;;;;0.50;0.50;;;;;;;;;;5086577;28;20048;-68
2021/06/27 10:08:07;;;;;;;0.75;0.75;;;;;;;;;;5086989;28;20052;-68
2021/06/27 10:10:34;;;;;;;0.65;0.60;;;;;;;;;;5087252;28;20060;-67
2021/06/27 10:13:00;;;;;;;0.50;0.50;;;;;;;;;;5086543;28;20079;-67
2021/06/27 10:15:26;;;;;;;0.50;0.50;;;;;;;;;;5086281;28;20059;-68
2021/06/27 10:17:53;;;;;;;0.52;0.50;;;;;;;;;;5087457;28;20121;-68
2021/06/27 10:20:19;;;;;;;0.60;0.60;;;;;;;;;;5086635;28;20531;-68
2021/06/27 10:22:45;;;;;;;0.60;0.60;;;;;;;;;;5086745;28;20040;-67
2021/06/27 10:25:15;;;;;;;0.73;0.73;;;;;;;;;;5085712;28;20048;-68
2021/06/27 10:27:42;;;;;;;0.50;0.50;;;;;;;;;;5087062;28;20477;-68
2021/06/27 10:30:11;;;;;;;0.63;0.63;;;;;;;;;;5087698;28;20068;-68
2021/06/27 10:32:42;;;;;;;0.57;0.57;;;;;;;;;;5088532;28;20469;-67
2021/06/27 10:35:09;;;;;;;0.77;0.77;;;;;;;;;;5089241;28;20056;-68
2021/06/27 10:37:39;;;;;;;0.60;0.60;;;;;;;;;;5090617;28;20047;-67
2021/06/27 10:40:10;;;;;;;0.50;0.43;;;;;;;;;;5072288;28;20473;-68
2021/06/27 10:42:54;;;;;;;0.60;0.60;;;;;;;;;;5089403;28;20590;-67
2021/06/27 10:45:20;;;;;;;0.60;0.60;;;;;;;;;;5089456;28;20060;-68
2021/06/27 10:47:46;;;;;;;0.75;0.75;;;;;;;;;;5090345;28;20126;-67
2021/06/27 10:50:13;;;;;;;0.98;0.98;;;;;;;;;;5089233;28;20052;-68
2021/06/27 10:52:53;;;;;;;0.65;0.65;;;;;;;;;;5089298;28;20067;-67
2021/06/27 10:55:23;;;;;;;0.82;0.82;;;;;;;;;;5089354;28;20482;-68
2021/06/27 10:57:59;;;;;;;0.68;0.50;;;;;;;;;;5105452;28;20062;-67
2021/06/27 11:00:26;;;;;;;0.70;0.70;;;;;;;;;;5109813;28;20128;-68
2021/06/27 11:02:52;;;;;;;0.75;0.75;;;;;;;;;;5108022;28;20051;-68
2021/06/27 11:05:34;;;;;;;0.50;0.50;;;;;;;;;;5109095;28;20047;-67
2021/06/27 11:08:00;;;;;;;0.55;0.55;;;;;;;;;;5110159;28;20529;-67
2021/06/27 11:10:28;;;;;;;0.60;0.60;;;;;;;;;;5109724;28;20047;-68
2021/06/27 11:12:57;;;;;;;1.73;1.08;;;;;;;;;;5109284;28;20066;-67
2021/06/27 11:15:24;;;;;;;0.47;0.47;;;;;;;;;;5109347;28;20047;-68
2021/06/27 11:17:53;;;;;;;0.80;0.80;;;;;;;;;;5110120;28;20044;-67
2021/06/27 11:20:20;;;;;;;0.73;0.73;;;;;;;;;;5109660;28;20494;-68
2021/06/27 11:22:50;;;;;;;1.23;1.15;;;;;;;;;;5109201;28;20109;-67
2021/06/27 11:25:34;;;;;;;0.50;0.50;;;;;;;;;;5109067;28;20623;-68
2021/06/27 11:28:21;;;;;;;1.00;0.82;;;;;;;;;;5109737;28;20464;-68
2021/06/27 11:31:13;;;;;;;0.60;0.60;;;;;;;;;;5109325;28;20142;-67
2021/06/27 11:33:39;;;;;;;1.55;0.65;;;;;;;;;;5108219;28;20044;-67
2021/06/27 11:36:24;;;;;;;0.80;0.80;;;;;;;;;;5109065;28;20274;-68
2021/06/27 11:38:50;;;;;;;1.00;1.00;;;;;;;;;;5109556;28;20302;-67
2021/06/27 11:41:25;;;;;;;0.60;0.60;;;;;;;;;;5107657;28;20062;-67
2021/06/27 11:44:01;;;;;;;0.93;0.88;;;;;;;;;;5108967;28;20542;-68
2021/06/27 11:46:28;;;;;;;1.25;0.63;;;;;;;;;;5109196;28;20120;-67
2021/06/27 11:48:55;;;;;;;0.93;0.93;;;;;;;;;;5109799;28;20047;-68
2021/06/27 11:51:32;;;;;;;0.98;0.95;;;;;;;;;;5108949;28;20096;-67
2021/06/27 11:53:59;;;;;;;0.45;0.45;;;;;;;;;;5108854;28;20563;-68
2021/06/27 11:56:25;;;;;;;0.50;0.50;;;;;;;;;;5104792;28;20044;-67
2021/06/27 11:59:08;;;;;;;0.60;0.52;;;;;;;;;;5070182;28;20499;-68
2021/06/27 12:01:34;;;;;;;1.02;1.00;;;;;;;;;;5087974;28;20048;-68
2021/06/27 12:04:00;;;;;;;0.80;0.80;;;;;;;;;;5088641;28;20054;-67
2021/06/27 12:06:34;;;;;;;0.90;0.90;;;;;;;;;;5087969;28;20105;-67
2021/06/27 12:09:00;;;;;;;0.43;0.40;;;;;;;;;;5089327;28;20044;-67
2021/06/27 12:11:26;;;;;;;0.80;0.52;;;;;;;;;;5088577;28;20040;-68
2021/06/27 12:13:56;;;;;;;0.50;0.50;;;;;;;;;;5088219;28;20456;-68
2021/06/27 12:16:22;;;;;;;0.60;0.60;;;;;;;;;;5087790;28;20058;-67
2021/06/27 12:18:48;;;;;;;0.88;0.88;;;;;;;;;;5089066;28;20445;-67
2021/06/27 12:21:14;;;;;;;0.95;0.93;;;;;;;;;;5088115;28;20087;-67
2021/06/27 12:23:47;;;;;;;0.50;0.50;;;;;;;;;;5087959;28;20366;-67
2021/06/27 12:26:14;;;;;;;1.40;0.70;;;;;;;;;;5088044;28;20082;-68
2021/06/27 12:28:49;;;;;;;1.20;1.10;;;;;;;;;;5088790;28;20067;-67
2021/06/27 12:31:18;;;;;;;0.95;0.63;;;;;;;;;;5086750;28;20532;-68
2021/06/27 12:33:46;;;;;;;0.70;0.70;;;;;;;;;;5087657;28;20040;-67
2021/06/27 12:36:16;;;;;;;0.77;0.75;;;;;;;;;;5087122;28;20575;-67
2021/06/27 12:38:47;;;;;;;0.60;0.60;;;;;;;;;;5088645;28;20064;-68
2021/06/27 12:41:17;;;;;;;0.57;0.57;;;;;;;;;;5087435;28;20047;-68
2021/06/27 12:43:44;;;;;;;0.80;0.80;;;;;;;;;;5087420;28;20135;-68
2021/06/27 12:46:13;;;;;;;1.00;0.90;;;;;;;;;;5087534;28;20458;-68
2021/06/27 12:48:40;;;;;;;0.65;0.50;;;;;;;;;;5088506;28;20040;-68
2021/06/27 12:51:18;;;;;;;0.90;0.90;;;;;;;;;;5088473;28;20116;-68
2021/06/27 12:53:55;;;;;;;0.45;0.43;;;;;;;;;;5087587;28;20052;-68
2021/06/27 12:56:21;;;;;;;0.70;0.70;;;;;;;;;;5090470;28;20126;-68
2021/06/27 12:58:54;;;;;;;0.70;0.70;;;;;;;;;;5108374;28;20044;-67
2021/06/27 13:01:20;;;;;;;1.08;0.90;;;;;;;;;;5107365;28;20058;-68
2021/06/27 13:03:57;;;;;;;0.77;0.77;;;;;;;;;;5107501;28;20398;-67
2021/06/27 13:06:23;;;;;;;0.60;0.60;;;;;;;;;;5107313;28;20050;-68
2021/06/27 13:08:49;;;;;;;1.33;1.08;;;;;;;;;;5108562;28;20075;-68
2021/06/27 13:11:15;;;;;;;1.35;0.80;;;;;;;;;;5107701;28;20051;-68
2021/06/27 13:13:41;;;;;;;0.73;0.73;;;;;;;;;;5107631;28;20040;-67
2021/06/27 13:16:16;;;;;;;1.00;0.75;;;;;;;;;;5108050;28;20075;-68
2021/06/27 13:18:43;;;;;;;0.88;0.88;;;;;;;;;;5108441;28;20035;-68
2021/06/27 13:21:20;;;;;;;0.40;0.40;;;;;;;;;;5107620;28;20054;-68
2021/06/27 13:23:46;;;;;;;1.08;0.90;;;;;;;;;;5107605;28;20510;-68
2021/06/27 13:26:20;;;;;;;1.25;1.15;;;;;;;;;;5106967;28;20043;-68
2021/06/27 13:28:47;;;;;;;0.60;0.60;;;;;;;;;;5108092;28;20570;-68
2021/06/27 13:31:15;;;;;;;0.57;0.57;;;;;;;;;;5106180;28;20039;-68
2021/06/27 13:33:51;;;;;;;0.77;0.77;;;;;;;;;;5107319;28;20147;-67
2021/06/27 13:36:17;;;;;;;0.77;0.77;;;;;;;;;;5107293;28;20101;-68
2021/06/27 13:38:48;;;;;;;1.05;1.00;;;;;;;;;;5107999;28;20078;-68
2021/06/27 13:41:25;;;;;;;0.50;0.50;;;;;;;;;;5107144;28;20130;-68
2021/06/27 13:43:52;;;;;;;0.70;0.70;;;;;;;;;;5106966;28;20051;-67
2021/06/27 13:46:18;;;;;;;0.57;0.57;;;;;;;;;;5107093;28;20387;-68
2021/06/27 13:48:45;;;;;;;0.82;0.82;;;;;;;;;;5107951;28;20047;-67
2021/06/27 13:51:11;;;;;;;0.63;0.63;;;;;;;;;;5107426;28;20052;-68
2021/06/27 13:53:37;;;;;;;0.70;0.70;;;;;;;;;;5107133;28;20139;-68
2021/06/27 13:56:18;;;;;;;0.70;0.70;;;;;;;;;;5106789;28;20044;-68
2021/06/27 13:58:54;;;;;;;1.38;1.25;;;;;;;;;;5087526;28;20054;-68
2021/06/27 14:01:23;;;;;;;0.75;0.75;;;;;;;;;;5085982;28;20047;-67
2021/06/27 14:03:50;;;;;;;1.02;0.93;;;;;;;;;;5085818;28;20083;-67
2021/06/27 14:06:17;;;;;;;0.65;0.65;;;;;;;;;;5085872;28;20044;-68
2021/06/27 14:08:44;;;;;;;0.82;0.82;;;;;;;;;;5087012;28;20052;-68
2021/06/27 14:11:11;;;;;;;0.55;0.55;;;;;;;;;;5086727;28;20130;-68
2021/06/27 14:13:37;;;;;;;0.70;0.70;;;;;;;;;;5086212;28;20043;-68
2021/06/27 14:16:05;;;;;;;0.75;0.70;;;;;;;;;;5086670;28;20040;-68
2021/06/27 14:18:31;;;;;;;0.60;0.60;;;;;;;;;;5086974;28;20113;-67
2021/06/27 14:20:57;;;;;;;0.68;0.68;;;;;;;;;;5086689;28;20468;-68
2021/06/27 14:23:23;;;;;;;0.50;0.50;;;;;;;;;;5085661;28;20040;-68
2021/06/27 14:25:50;;;;;;;0.70;0.65;;;;;;;;;;5086494;28;20044;-67
2021/06/27 14:28:16;;;;;;;0.80;0.80;;;;;;;;;;5086625;28;20525;-68
2021/06/27 14:30:43;;;;;;;0.88;0.73;;;;;;;;;;5086334;28;20055;-67
2021/06/27 14:33:09;;;;;;;0.80;0.80;;;;;;;;;;5084932;28;20101;-68
2021/06/27 14:35:35;;;;;;;0.70;0.70;;;;;;;;;;5086294;28;20050;-67
2021/06/27 14:38:01;;;;;;;0.88;0.88;;;;;;;;;;5086976;28;20044;-68
2021/06/27 14:40:27;;;;;;;0.63;0.50;;;;;;;;;;5086279;28;20067;-67
2021/06/27 14:42:54;;;;;;;0.85;0.80;;;;;;;;;;5086420;28;20063;-67
2021/06/27 14:45:21;;;;;;;0.68;0.68;;;;;;;;;;5085466;28;20048;-67
2021/06/27 14:47:47;;;;;;;1.38;0.85;;;;;;;;;;5086760;28;20087;-68